createdAt,value
2023-10-01T00:01:05.343Z,50.00
2023-10-01T00:03:33.279Z,50.00
2023-10-01T00:06:01.217Z,50.00
2023-10-01T00:08:30.426Z,50.00
2023-10-01T00:10:58.343Z,50.00
2023-10-01T00:13:27.849Z,50.00
2023-10-01T00:15:56.324Z,50.10
2023-10-01T00:18:26.448Z,50.10
2023-10-01T00:20:54.350Z,50.20
2023-10-01T00:23:22.216Z,50.10
2023-10-01T00:25:50.409Z,50.20
2023-10-01T00:28:18.601Z,50.30
2023-10-01T00:30:47.236Z,50.30
2023-10-01T00:33:16.650Z,50.40
2023-10-01T00:35:45.890Z,50.30
2023-10-01T00:38:14.595Z,50.40
2023-10-01T00:40:44.825Z,50.40
2023-10-01T00:43:13.783Z,50.50
2023-10-01T00:45:41.933Z,50.50
2023-10-01T00:48:12.315Z,50.50
2023-10-01T00:50:40.850Z,50.60
2023-10-01T00:53:11.666Z,50.60
2023-10-01T00:55:40.633Z,50.60
2023-10-01T00:58:11.272Z,50.60
2023-10-01T01:00:39.765Z,50.60
2023-10-01T01:03:09.789Z,50.60
2023-10-01T01:05:39.374Z,50.70
2023-10-01T01:08:22.278Z,50.80
2023-10-01T01:10:52.708Z,50.90
2023-10-01T01:13:21.006Z,50.80
2023-10-01T01:15:53.183Z,50.80
2023-10-01T01:18:23.406Z,50.90
2023-10-01T01:20:59.172Z,50.80
2023-10-01T01:23:32.001Z,50.80
2023-10-01T01:26:00.616Z,50.90
2023-10-01T01:28:31.756Z,50.80
2023-10-01T01:31:01.144Z,51.40
2023-10-01T01:33:33.275Z,51.00
2023-10-01T01:36:04.940Z,51.00
2023-10-01T01:38:35.042Z,51.00
2023-10-01T01:41:04.820Z,51.00
2023-10-01T01:43:33.282Z,51.00
2023-10-01T01:46:04.860Z,51.10
2023-10-01T01:48:35.045Z,51.10
2023-10-01T01:51:04.520Z,51.00
2023-10-01T01:53:37.539Z,51.00
2023-10-01T01:56:09.968Z,51.10
2023-10-01T01:58:40.902Z,51.60
2023-10-01T02:01:20.286Z,51.20
2023-10-01T02:03:52.471Z,51.30
2023-10-01T02:06:28.874Z,51.30
2023-10-01T02:08:59.942Z,51.30
2023-10-01T02:11:33.497Z,51.40
2023-10-01T02:14:03.975Z,51.40
2023-10-01T02:16:38.488Z,51.40
2023-10-01T02:19:18.800Z,51.40
2023-10-01T02:21:51.236Z,51.40
2023-10-01T02:24:24.454Z,51.40
2023-10-01T02:27:00.383Z,51.50
2023-10-01T02:29:33.031Z,51.40
2023-10-01T02:32:05.683Z,51.50
2023-10-01T02:34:34.195Z,51.50
2023-10-01T02:37:07.039Z,51.50
2023-10-01T02:39:38.824Z,51.50
2023-10-01T02:42:22.161Z,52.00
2023-10-01T02:44:54.687Z,51.60
2023-10-01T02:47:23.166Z,51.50
2023-10-01T02:49:53.269Z,51.60
2023-10-01T02:52:23.573Z,51.60
2023-10-01T02:54:55.801Z,51.60
2023-10-01T02:57:26.280Z,51.60
2023-10-01T03:00:13.760Z,51.70
2023-10-01T03:02:43.434Z,51.60
2023-10-01T03:05:19.446Z,51.60
2023-10-01T03:07:51.737Z,51.60
2023-10-01T03:10:27.767Z,51.60
2023-10-01T03:12:56.586Z,51.70
2023-10-01T03:15:29.270Z,51.70
2023-10-01T03:17:58.566Z,51.70
2023-10-01T03:20:46.363Z,51.70
2023-10-01T03:23:26.781Z,51.80
2023-10-01T03:25:59.980Z,51.80
2023-10-01T03:28:29.837Z,51.80
2023-10-01T03:31:07.760Z,51.80
2023-10-01T03:33:39.489Z,51.80
2023-10-01T03:36:12.528Z,51.80
2023-10-01T03:38:41.157Z,51.80
2023-10-01T03:41:21.595Z,51.90
2023-10-01T03:43:51.430Z,51.90
2023-10-01T03:46:27.663Z,51.90
2023-10-01T03:48:59.952Z,52.00
2023-10-01T03:51:47.787Z,51.90
2023-10-01T03:54:16.118Z,51.90
2023-10-01T03:56:57.268Z,52.00
2023-10-01T03:59:28.220Z,52.40
2023-10-01T04:02:25.344Z,52.10
2023-10-01T04:04:59.208Z,52.10
2023-10-01T04:07:41.325Z,52.10
2023-10-01T04:10:14.808Z,52.10
2023-10-01T04:12:45.616Z,52.10
2023-10-01T04:15:28.470Z,52.20
2023-10-01T04:21:11.773Z,52.20
2023-10-01T04:23:48.593Z,52.20
2023-10-01T04:26:19.082Z,52.20
2023-10-01T04:28:48.521Z,52.20
2023-10-01T04:31:20.924Z,52.30
2023-10-01T04:33:50.622Z,52.40
2023-10-01T04:36:21.194Z,52.40
2023-10-01T04:38:53.006Z,52.50
2023-10-01T04:41:23.442Z,52.40
2023-10-01T04:43:57.505Z,52.40
2023-10-01T04:46:29.123Z,52.40
2023-10-01T04:48:57.355Z,52.40
2023-10-01T04:51:45.565Z,52.40
2023-10-01T04:54:18.857Z,52.50
2023-10-01T04:56:49.218Z,52.50
2023-10-01T04:59:17.193Z,52.50
2023-10-01T05:01:45.327Z,52.50
2023-10-01T05:04:14.896Z,52.50
2023-10-01T05:06:44.782Z,52.60
2023-10-01T05:09:15.770Z,52.60
2023-10-01T05:11:46.937Z,52.50
2023-10-01T05:14:16.087Z,52.50
2023-10-01T05:16:44.828Z,52.60
2023-10-01T05:19:14.417Z,52.60
2023-10-01T05:21:49.451Z,52.60
2023-10-01T05:24:32.396Z,52.70
2023-10-01T05:27:03.351Z,52.70
2023-10-01T05:29:32.407Z,52.70
2023-10-01T05:32:00.565Z,52.70
2023-10-01T05:34:29.952Z,52.70
2023-10-01T05:37:10.007Z,52.80
2023-10-01T05:40:06.607Z,52.80
2023-10-01T05:42:42.710Z,52.80
2023-10-01T05:45:19.418Z,52.80
2023-10-01T05:47:53.775Z,52.90
2023-10-01T05:50:23.513Z,52.90
2023-10-01T05:52:53.549Z,53.00
2023-10-01T05:55:23.141Z,53.10
2023-10-01T05:57:51.657Z,53.10
2023-10-01T06:00:26.158Z,53.10
2023-10-01T06:03:01.732Z,53.20
2023-10-01T06:05:39.613Z,53.20
2023-10-01T06:08:16.177Z,53.20
2023-10-01T06:11:00.253Z,53.30
2023-10-01T06:13:30.745Z,53.40
2023-10-01T06:15:58.631Z,53.30
2023-10-01T06:18:28.254Z,53.40
2023-10-01T06:20:56.129Z,53.40
2023-10-01T06:23:26.746Z,53.40
2023-10-01T06:25:55.175Z,53.50
2023-10-01T06:28:24.543Z,53.40
2023-10-01T06:30:53.853Z,53.60
2023-10-01T06:33:30.625Z,53.60
2023-10-01T06:36:16.430Z,53.70
2023-10-01T06:38:46.500Z,53.70
2023-10-01T06:41:20.719Z,53.70
2023-10-01T06:43:55.818Z,53.70
2023-10-01T06:46:25.500Z,53.80
2023-10-01T06:48:55.897Z,53.80
2023-10-01T06:51:25.651Z,53.80
2023-10-01T06:54:00.802Z,53.80
2023-10-01T06:56:31.109Z,53.90
2023-10-01T06:59:19.139Z,53.90
2023-10-01T07:01:51.186Z,54.00
2023-10-01T07:04:20.991Z,54.20
2023-10-01T07:06:51.787Z,54.10
2023-10-01T07:09:26.137Z,54.10
2023-10-01T07:11:54.959Z,54.20
2023-10-01T07:14:32.015Z,54.30
2023-10-01T07:17:01.706Z,54.40
2023-10-01T07:19:31.087Z,54.30
2023-10-01T07:21:59.201Z,54.50
2023-10-01T07:24:31.174Z,54.70
2023-10-01T07:27:04.601Z,54.80
2023-10-01T07:29:34.792Z,54.90
2023-10-01T07:32:05.749Z,55.00
2023-10-01T07:34:34.010Z,54.90
2023-10-01T07:37:02.064Z,55.00
2023-10-01T07:39:37.294Z,54.90
2023-10-01T07:42:06.596Z,55.20
2023-10-01T07:44:37.227Z,55.20
2023-10-01T07:47:05.548Z,55.20
2023-10-01T07:49:48.502Z,55.30
2023-10-01T07:52:19.627Z,55.60
2023-10-01T07:54:50.633Z,55.60
2023-10-01T07:57:25.530Z,55.70
2023-10-01T07:59:54.261Z,55.90
2023-10-01T08:02:22.843Z,55.60
2023-10-01T08:05:08.342Z,55.60
2023-10-01T08:07:43.271Z,55.70
2023-10-01T08:10:21.831Z,55.90
2023-10-01T08:13:07.360Z,56.10
2023-10-01T08:15:58.368Z,56.10
2023-10-01T08:18:36.305Z,56.10
2023-10-01T08:21:16.306Z,56.70
2023-10-01T08:23:49.261Z,58.00
2023-10-01T08:26:36.806Z,60.00
2023-10-01T08:29:05.343Z,63.60
2023-10-01T08:32:04.682Z,67.40
2023-10-01T08:34:52.956Z,68.70
2023-10-01T08:37:23.893Z,67.20
2023-10-01T08:39:55.303Z,64.60
2023-10-01T08:42:30.032Z,61.70
2023-10-01T08:45:04.945Z,58.80
2023-10-01T08:47:35.513Z,57.30
2023-10-01T08:50:19.364Z,54.20
2023-10-01T08:53:02.225Z,52.90
2023-10-01T08:55:40.914Z,51.80
2023-10-01T08:58:26.439Z,50.80
2023-10-01T09:00:58.037Z,50.00
2023-10-01T09:03:32.028Z,49.70
2023-10-01T09:06:06.045Z,49.00
2023-10-01T09:08:43.454Z,48.40
2023-10-01T09:11:14.409Z,47.90
2023-10-01T09:13:59.103Z,46.30
2023-10-01T09:16:33.864Z,44.10
2023-10-01T09:19:06.432Z,43.30
2023-10-01T09:21:39.985Z,44.10
2023-10-01T09:24:34.835Z,43.40
2023-10-01T09:27:10.107Z,42.60
2023-10-01T09:29:45.015Z,41.70
2023-10-01T09:32:15.275Z,40.50
2023-10-01T09:34:55.141Z,39.40
2023-10-01T09:37:35.097Z,39.20
2023-10-01T09:40:14.995Z,39.10
2023-10-01T09:42:46.672Z,38.50
2023-10-01T09:45:28.652Z,38.40
2023-10-01T09:48:05.969Z,37.70
2023-10-01T09:50:41.134Z,36.50
2023-10-01T09:53:14.362Z,36.10
2023-10-01T09:55:49.555Z,35.60
2023-10-01T09:58:25.590Z,35.50
2023-10-01T10:01:00.272Z,35.20
2023-10-01T10:03:37.299Z,34.90
2023-10-01T10:06:07.801Z,35.00
2023-10-01T10:08:36.166Z,34.80
2023-10-01T10:11:07.399Z,34.70
2023-10-01T10:13:46.569Z,34.30
2023-10-01T10:16:35.605Z,34.10
2023-10-01T10:19:09.765Z,33.70
2023-10-01T10:22:13.411Z,33.00
2023-10-01T10:24:47.920Z,32.70
2023-10-01T10:27:48.489Z,32.30
2023-10-01T10:30:19.739Z,31.60
2023-10-01T10:33:44.365Z,31.50
2023-10-01T10:36:54.441Z,31.00
2023-10-01T10:40:28.136Z,31.70
2023-10-01T10:43:20.664Z,30.60
2023-10-01T10:46:02.730Z,30.90
2023-10-01T10:48:49.498Z,30.00
2023-10-01T10:51:49.474Z,30.10
2023-10-01T10:54:30.007Z,29.90
2023-10-01T10:56:58.295Z,30.00
2023-10-01T10:59:27.378Z,30.20
2023-10-01T11:01:58.027Z,30.00
2023-10-01T11:04:32.879Z,28.20
2023-10-01T11:07:05.660Z,28.90
2023-10-01T11:09:35.622Z,29.10
2023-10-01T11:12:06.561Z,29.20
2023-10-01T11:14:35.167Z,29.10
2023-10-01T11:17:04.523Z,29.10
2023-10-01T11:19:36.901Z,29.10
2023-10-01T11:22:08.430Z,29.00
2023-10-01T11:24:38.195Z,28.50
2023-10-01T11:27:19.780Z,28.60
2023-10-01T11:30:13.705Z,28.10
2023-10-01T11:33:06.312Z,28.30
2023-10-01T11:35:35.781Z,28.60
2023-10-01T11:38:13.982Z,28.80
2023-10-01T11:41:00.896Z,28.80
2023-10-01T11:43:34.349Z,29.10
2023-10-01T11:46:29.832Z,29.00
2023-10-01T11:48:59.338Z,28.80
2023-10-01T11:51:42.067Z,28.90
2023-10-01T11:54:13.068Z,28.60
2023-10-01T11:56:43.314Z,28.90
2023-10-01T11:59:18.915Z,28.70
2023-10-01T12:01:52.509Z,28.40
2023-10-01T12:04:42.499Z,28.20
2023-10-01T12:07:17.675Z,28.10
2023-10-01T12:09:51.999Z,28.30
2023-10-01T12:12:20.764Z,28.20
2023-10-01T12:14:55.471Z,28.10
2023-10-01T12:17:28.459Z,28.10
2023-10-01T12:20:00.089Z,28.20
2023-10-01T12:22:29.923Z,28.00
2023-10-01T12:25:00.927Z,28.10
2023-10-01T12:27:41.476Z,28.30
2023-10-01T12:30:13.835Z,28.20
2023-10-01T12:32:49.278Z,28.20
2023-10-01T12:35:28.205Z,28.30
2023-10-01T12:38:06.591Z,28.30
2023-10-01T12:40:36.358Z,28.30
2023-10-01T12:43:15.104Z,28.20
2023-10-01T12:45:45.101Z,28.20
2023-10-01T12:48:13.057Z,28.50
2023-10-01T12:50:59.931Z,28.30
2023-10-01T12:53:28.185Z,28.40
2023-10-01T12:55:57.992Z,28.50
2023-10-01T12:58:36.949Z,28.40
2023-10-01T13:01:05.392Z,28.40
2023-10-01T13:03:36.337Z,28.30
2023-10-01T13:06:12.836Z,27.80
2023-10-01T13:08:42.509Z,27.70
2023-10-01T13:11:31.100Z,27.70
2023-10-01T13:14:24.189Z,27.90
2023-10-01T13:17:01.550Z,27.90
2023-10-01T13:19:34.905Z,28.00
2023-10-01T13:22:05.259Z,28.10
2023-10-01T13:24:33.800Z,28.00
2023-10-01T13:27:12.309Z,28.00
2023-10-01T13:29:41.718Z,27.80
2023-10-01T13:32:17.546Z,28.00
2023-10-01T13:34:50.816Z,28.00
2023-10-01T13:37:32.834Z,27.90
2023-10-01T13:40:14.337Z,27.90
2023-10-01T13:43:00.886Z,28.10
2023-10-01T13:45:46.284Z,28.00
2023-10-01T13:48:31.433Z,28.30
2023-10-01T13:51:22.736Z,28.10
2023-10-01T13:54:07.969Z,28.20
2023-10-01T13:56:53.517Z,28.00
2023-10-01T13:59:40.377Z,28.30
2023-10-01T14:02:25.834Z,28.30
2023-10-01T14:05:11.142Z,28.30
2023-10-01T14:07:56.664Z,28.40
2023-10-01T14:10:26.058Z,28.50
2023-10-01T14:13:01.598Z,28.50
2023-10-01T14:15:30.899Z,28.40
2023-10-01T14:18:01.727Z,28.60
2023-10-01T14:20:45.989Z,28.80
2023-10-01T14:23:28.006Z,28.90
2023-10-01T14:26:00.790Z,29.00
2023-10-01T14:28:30.042Z,28.90
2023-10-01T14:31:06.938Z,29.00
2023-10-01T14:33:35.437Z,28.90
2023-10-01T14:36:04.702Z,29.00
2023-10-01T14:38:41.612Z,28.80
2023-10-01T14:41:16.943Z,28.80
2023-10-01T14:43:53.673Z,28.90
2023-10-01T14:46:24.237Z,29.10
2023-10-01T14:48:52.606Z,29.10
2023-10-01T14:51:26.810Z,29.10
2023-10-01T14:53:56.353Z,29.20
2023-10-01T14:56:24.280Z,29.00
2023-10-01T14:58:52.359Z,29.00
2023-10-01T15:01:22.039Z,29.10
2023-10-01T15:03:54.968Z,29.10
2023-10-01T15:06:24.884Z,29.30
2023-10-01T15:09:01.086Z,29.20
2023-10-01T15:11:31.611Z,29.60
2023-10-01T15:14:12.519Z,29.70
2023-10-01T15:16:52.212Z,29.50
2023-10-01T15:19:47.792Z,29.60
2023-10-01T15:22:18.371Z,29.60
2023-10-01T15:24:49.029Z,29.70
2023-10-01T15:27:24.733Z,29.50
2023-10-01T15:29:54.825Z,29.40
2023-10-01T15:32:24.254Z,29.50
2023-10-01T15:34:57.717Z,29.70
2023-10-01T15:37:31.026Z,29.80
2023-10-01T15:40:01.835Z,29.90
2023-10-01T15:42:36.258Z,30.00
2023-10-01T15:45:17.271Z,29.80
2023-10-01T15:47:48.224Z,29.90
2023-10-01T15:50:19.287Z,30.30
2023-10-01T15:52:49.208Z,30.50
2023-10-01T15:55:18.907Z,30.70
2023-10-01T15:57:55.070Z,31.00
2023-10-01T16:00:27.864Z,31.10
2023-10-01T16:03:07.096Z,31.00
2023-10-01T16:05:41.830Z,31.40
2023-10-01T16:08:10.866Z,31.40
2023-10-01T16:10:45.197Z,31.30
2023-10-01T16:13:15.959Z,31.50
2023-10-01T16:15:46.524Z,31.40
2023-10-01T16:18:16.002Z,31.70
2023-10-01T16:20:44.041Z,31.80
2023-10-01T16:23:16.405Z,31.90
2023-10-01T16:25:44.944Z,32.20
2023-10-01T16:28:20.567Z,32.30
2023-10-01T16:30:54.183Z,32.40
2023-10-01T16:33:24.958Z,32.70
2023-10-01T16:35:52.894Z,32.70
2023-10-01T16:38:21.627Z,32.70
2023-10-01T16:40:49.696Z,32.80
2023-10-01T16:43:19.307Z,32.90
2023-10-01T16:45:47.407Z,33.10
2023-10-01T16:48:25.957Z,33.20
2023-10-01T16:51:00.684Z,33.40
2023-10-01T16:53:31.078Z,33.70
2023-10-01T16:56:01.089Z,33.90
2023-10-01T16:58:36.914Z,34.00
2023-10-01T17:01:14.579Z,34.20
2023-10-01T17:03:49.950Z,34.60
2023-10-01T17:06:21.377Z,34.50
2023-10-01T17:08:49.362Z,34.80
2023-10-01T17:11:19.543Z,34.90
2023-10-01T17:13:48.866Z,35.30
2023-10-01T17:16:22.055Z,35.30
2023-10-01T17:18:51.691Z,35.70
2023-10-01T17:21:29.904Z,35.60
2023-10-01T17:23:58.549Z,35.80
2023-10-01T17:26:29.491Z,35.90
2023-10-01T17:28:58.807Z,36.10
2023-10-01T17:31:28.029Z,36.30
2023-10-01T17:34:03.603Z,36.50
2023-10-01T17:36:35.223Z,36.70
2023-10-01T17:39:20.619Z,37.00
2023-10-01T17:41:57.056Z,37.30
2023-10-01T17:44:27.060Z,37.20
2023-10-01T17:47:01.639Z,37.80
2023-10-01T17:49:30.091Z,37.60
2023-10-01T17:52:01.134Z,37.80
2023-10-01T17:54:30.018Z,38.10
2023-10-01T17:57:00.988Z,38.20
2023-10-01T17:59:30.331Z,38.30
2023-10-01T18:02:08.707Z,38.40
2023-10-01T18:04:38.434Z,38.70
2023-10-01T18:07:17.390Z,38.80
2023-10-01T18:09:52.944Z,39.00
2023-10-01T18:12:30.902Z,39.00
2023-10-01T18:15:00.538Z,39.20
2023-10-01T18:17:29.097Z,39.40
2023-10-01T18:19:57.111Z,39.50
2023-10-01T18:22:29.228Z,39.60
2023-10-01T18:24:58.930Z,39.90
2023-10-01T18:27:28.485Z,39.90
2023-10-01T18:29:58.555Z,40.10
2023-10-01T18:32:26.828Z,40.40
2023-10-01T18:34:56.756Z,40.30
2023-10-01T18:37:28.465Z,40.60
2023-10-01T18:39:56.815Z,40.80
2023-10-01T18:42:24.887Z,40.90
2023-10-01T18:44:53.000Z,41.10
2023-10-01T18:47:21.657Z,41.20
2023-10-01T18:49:49.696Z,41.40
2023-10-01T18:52:21.274Z,41.60
2023-10-01T18:54:50.823Z,41.60
2023-10-01T18:57:19.906Z,41.90
2023-10-01T18:59:49.444Z,41.90
2023-10-01T19:02:22.966Z,42.00
2023-10-01T19:04:51.552Z,42.00
2023-10-01T19:07:20.209Z,42.10
2023-10-01T19:09:49.239Z,42.20
2023-10-01T19:12:18.456Z,42.40
2023-10-01T19:14:46.286Z,42.60
2023-10-01T19:17:15.873Z,42.60
2023-10-01T19:19:44.889Z,42.70
2023-10-01T19:22:13.623Z,42.80
2023-10-01T19:24:41.777Z,42.90
2023-10-01T19:27:14.755Z,43.10
2023-10-01T19:29:43.998Z,43.10
2023-10-01T19:32:14.699Z,43.30
2023-10-01T19:34:44.440Z,43.40
2023-10-01T19:37:15.329Z,43.60
2023-10-01T19:39:44.432Z,43.70
2023-10-01T19:42:17.924Z,43.90
2023-10-01T19:44:47.178Z,44.10
2023-10-01T19:47:17.045Z,44.10
2023-10-01T19:49:45.296Z,44.20
2023-10-01T19:52:23.672Z,44.20
2023-10-01T19:54:55.342Z,44.80
2023-10-01T19:57:23.251Z,44.60
2023-10-01T19:59:53.624Z,44.50
2023-10-01T20:02:28.920Z,45.00
2023-10-01T20:04:56.932Z,44.80
2023-10-01T20:07:29.590Z,44.70
2023-10-01T20:09:59.881Z,44.80
2023-10-01T20:12:27.852Z,45.00
2023-10-01T20:14:57.041Z,45.10
2023-10-01T20:17:27.872Z,45.20
2023-10-01T20:19:55.856Z,45.30
2023-10-01T20:22:27.145Z,45.30
2023-10-01T20:24:56.704Z,45.50
2023-10-01T20:27:24.719Z,45.40
2023-10-01T20:29:56.931Z,45.50
2023-10-01T20:32:26.419Z,45.60
2023-10-01T20:34:54.549Z,45.70
2023-10-01T20:37:23.806Z,45.70
2023-10-01T20:39:51.733Z,45.80
2023-10-01T20:42:19.941Z,46.00
2023-10-01T20:44:51.234Z,46.10
2023-10-01T20:47:23.185Z,46.20
2023-10-01T20:49:54.289Z,46.20
2023-10-01T20:52:30.992Z,46.30
2023-10-01T20:55:15.851Z,46.50
2023-10-01T20:57:44.219Z,46.40
2023-10-01T21:00:23.826Z,46.40
2023-10-01T21:02:59.119Z,46.60
2023-10-01T21:05:30.163Z,46.60
2023-10-01T21:08:12.787Z,46.80
2023-10-01T21:10:42.355Z,47.20
2023-10-01T21:13:11.730Z,46.70
2023-10-01T21:15:41.712Z,46.90
2023-10-01T21:18:12.892Z,47.00
2023-10-01T21:20:44.867Z,47.10
2023-10-01T21:23:14.899Z,47.40
2023-10-01T21:25:49.328Z,47.30
2023-10-01T21:28:17.595Z,47.40
2023-10-01T21:30:46.818Z,47.40
2023-10-01T21:33:17.363Z,47.40
2023-10-01T21:35:47.380Z,47.50
2023-10-01T21:38:19.533Z,47.60
2023-10-01T21:40:47.511Z,47.80
2023-10-01T21:43:20.175Z,47.70
2023-10-01T21:46:00.588Z,47.90
2023-10-01T21:48:30.628Z,47.90
2023-10-01T21:51:02.330Z,48.00
2023-10-01T21:53:36.399Z,48.20
2023-10-01T21:56:07.295Z,48.00
2023-10-01T21:58:38.293Z,48.10
2023-10-01T22:01:25.101Z,48.20
2023-10-01T22:03:54.044Z,48.20
2023-10-01T22:06:30.541Z,48.20
2023-10-01T22:08:58.953Z,48.40
2023-10-01T22:11:28.866Z,48.30
2023-10-01T22:14:03.634Z,48.40
2023-10-01T22:16:41.339Z,48.40
2023-10-01T22:19:10.242Z,48.80
2023-10-01T22:21:39.586Z,48.50
2023-10-01T22:24:18.529Z,48.60
2023-10-01T22:26:50.144Z,48.70
2023-10-01T22:29:22.770Z,48.70
2023-10-01T22:31:52.435Z,49.00
2023-10-01T22:34:23.196Z,48.90
2023-10-01T22:36:56.731Z,49.00
2023-10-01T22:39:36.326Z,49.10
2023-10-01T22:42:31.384Z,49.10
2023-10-01T22:45:04.700Z,49.40
2023-10-01T22:47:33.813Z,49.20
2023-10-01T22:50:02.859Z,49.10
2023-10-01T22:52:32.668Z,49.20
2023-10-01T22:55:01.670Z,49.40
2023-10-01T22:57:46.871Z,49.40
2023-10-01T23:00:22.066Z,49.80
2023-10-01T23:02:53.147Z,49.40
2023-10-01T23:05:23.413Z,49.50
2023-10-01T23:08:06.993Z,49.50
2023-10-01T23:10:38.191Z,49.60
2023-10-01T23:13:09.684Z,49.60
2023-10-01T23:15:43.445Z,49.60
2023-10-01T23:18:19.340Z,49.80
2023-10-01T23:20:52.800Z,49.80
2023-10-01T23:23:29.760Z,49.90
2023-10-01T23:26:06.415Z,50.20
2023-10-01T23:28:37.996Z,50.10
2023-10-01T23:31:11.389Z,50.20
2023-10-01T23:33:40.104Z,50.20
2023-10-01T23:36:11.121Z,50.10
2023-10-01T23:38:56.131Z,50.20
2023-10-01T23:41:49.056Z,50.30
2023-10-01T23:44:24.544Z,50.20
2023-10-01T23:46:54.696Z,50.10
2023-10-01T23:49:25.885Z,50.20
2023-10-01T23:51:55.907Z,50.30
2023-10-01T23:54:30.099Z,50.40
2023-10-01T23:57:01.816Z,50.50
2023-10-01T23:59:32.191Z,50.50
